Time;durP1;ratioP1;P1;durP2;ratioP2;P2;SDS_P1;SDS_P2;PMS_P1;PMS_P2;Temp;Humidity;BMP_temperature;BMP_pressure;BME280_temperature;BME280_humidity;BME280_pressure;Samples;Min_cycle;Max_cycle;Signal;HPM_P1;HPM_P2
2021/05/11 00:29:03;;;;;;;31.92;16.85;;;;;;;;;;4146817;34;20107;-67
2021/05/11 00:31:29;;;;;;;25.80;17.83;;;;;;;;;;4149445;34;20193;-67
2021/05/11 00:33:55;;;;;;;24.45;17.35;;;;;;;;;;4137456;34;20135;-67
2021/05/11 00:36:21;;;;;;;26.50;19.02;;;;;;;;;;4149866;34;20131;-67
2021/05/11 00:38:47;;;;;;;29.60;17.65;;;;;;;;;;4150034;34;20131;-67
2021/05/11 00:41:13;;;;;;;28.98;17.98;;;;;;;;;;4137282;34;20122;-67
2021/05/11 00:43:45;;;;;;;25.52;18.12;;;;;;;;;;4137308;34;20158;-67
2021/05/11 00:46:13;;;;;;;27.98;18.62;;;;;;;;;;4149869;34;20110;-66
2021/05/11 00:48:39;;;;;;;28.55;19.65;;;;;;;;;;4149712;34;20130;-66
2021/05/11 00:51:05;;;;;;;28.87;18.30;;;;;;;;;;4151878;34;20175;-67
2021/05/11 00:53:32;;;;;;;31.27;17.80;;;;;;;;;;4151995;34;20146;-66
2021/05/11 00:55:58;;;;;;;26.62;17.73;;;;;;;;;;4152193;34;20479;-66
2021/05/11 00:58:24;;;;;;;23.48;17.42;;;;;;;;;;4139302;34;20119;-67
2021/05/11 01:00:50;;;;;;;28.85;17.65;;;;;;;;;;4139116;34;20142;-66
2021/05/11 01:03:16;;;;;;;27.73;18.77;;;;;;;;;;4151716;34;20204;-67
2021/05/11 01:05:42;;;;;;;24.95;16.75;;;;;;;;;;4151807;34;20533;-67
2021/05/11 01:08:09;;;;;;;27.45;16.70;;;;;;;;;;4151719;34;20207;-66
2021/05/11 01:10:36;;;;;;;23.87;17.27;;;;;;;;;;4139344;34;20545;-67
2021/05/11 01:13:02;;;;;;;27.00;15.95;;;;;;;;;;4138894;34;20196;-67
2021/05/11 01:15:28;;;;;;;27.48;17.02;;;;;;;;;;4139105;34;20146;-66
2021/05/11 01:18:00;;;;;;;26.62;16.33;;;;;;;;;;4139210;34;20464;-66
2021/05/11 01:20:35;;;;;;;26.60;17.60;;;;;;;;;;4151724;34;20118;-67
2021/05/11 01:25:49;;;;;;;26.17;17.03;;;;;;;;;;4151506;34;20091;-67
2021/05/11 01:28:28;;;;;;;25.45;16.77;;;;;;;;;;4151380;34;20284;-67
2021/05/11 01:55:37;;;;;;;29.93;18.10;;;;;;;;;;4151417;34;20475;-66
2021/05/11 02:25:02;;;;;;;34.17;18.70;;;;;;;;;;4149977;34;20131;-67
2021/05/11 02:27:28;;;;;;;25.20;16.15;;;;;;;;;;4150744;34;20126;-67
2021/05/11 02:29:54;;;;;;;24.77;16.50;;;;;;;;;;4138382;34;20231;-67
2021/05/11 02:32:20;;;;;;;25.05;16.48;;;;;;;;;;4151005;34;20178;-67
2021/05/11 02:34:46;;;;;;;25.73;17.58;;;;;;;;;;4138658;34;20126;-67
2021/05/11 02:37:12;;;;;;;31.33;16.98;;;;;;;;;;4138539;34;20175;-68
2021/05/11 02:39:38;;;;;;;28.02;16.12;;;;;;;;;;4151004;34;20122;-67
2021/05/11 02:42:07;;;;;;;26.80;16.58;;;;;;;;;;4150903;34;20118;-67
2021/05/11 02:44:46;;;;;;;29.73;16.80;;;;;;;;;;4150944;34;20130;-67
2021/05/11 02:47:12;;;;;;;27.70;16.73;;;;;;;;;;4150732;34;20195;-67
2021/05/11 02:49:42;;;;;;;36.65;16.45;;;;;;;;;;4138641;34;20190;-68
2021/05/11 02:52:08;;;;;;;24.65;16.58;;;;;;;;;;4151141;34;20483;-67
2021/05/11 02:54:34;;;;;;;25.83;17.70;;;;;;;;;;4138632;34;20155;-67
2021/05/11 02:57:00;;;;;;;32.05;17.60;;;;;;;;;;4150615;34;20524;-67
2021/05/11 02:59:26;;;;;;;29.15;16.40;;;;;;;;;;4150849;34;20278;-67
2021/05/11 03:01:52;;;;;;;26.30;16.77;;;;;;;;;;4150946;34;20099;-66
2021/05/11 03:04:18;;;;;;;28.65;15.02;;;;;;;;;;4138442;34;20111;-67
2021/05/11 03:06:44;;;;;;;25.73;16.80;;;;;;;;;;4138426;34;20127;-67
2021/05/11 03:09:10;;;;;;;39.42;17.50;;;;;;;;;;4150310;34;20199;-72
2021/05/11 03:11:36;;;;;;;27.40;16.95;;;;;;;;;;4150477;34;20138;-67
2021/05/11 03:14:03;;;;;;;26.92;16.37;;;;;;;;;;4150737;34;20126;-66
2021/05/11 03:16:32;;;;;;;28.27;16.15;;;;;;;;;;4149858;34;20139;-66
2021/05/11 03:18:58;;;;;;;28.62;15.88;;;;;;;;;;4147766;34;20397;-66
2021/05/11 03:21:24;;;;;;;27.75;16.45;;;;;;;;;;4150494;34;20211;-66
2021/05/11 03:23:50;;;;;;;24.67;15.10;;;;;;;;;;4149020;34;20131;-67
2021/05/11 03:26:16;;;;;;;23.95;15.88;;;;;;;;;;4130245;34;20505;-66
2021/05/11 03:28:42;;;;;;;25.20;14.75;;;;;;;;;;4131168;34;20120;-67
2021/05/11 03:31:08;;;;;;;32.22;18.30;;;;;;;;;;4143220;34;20460;-67
2021/05/11 03:33:34;;;;;;;29.33;18.30;;;;;;;;;;4130116;34;20106;-68
2021/05/11 03:36:01;;;;;;;27.35;15.90;;;;;;;;;;4129690;34;20139;-67
2021/05/11 03:38:27;;;;;;;28.85;15.95;;;;;;;;;;4141984;34;20111;-68
2021/05/11 03:40:54;;;;;;;23.33;15.07;;;;;;;;;;4142671;34;20629;-68
2021/05/11 03:43:31;;;;;;;32.90;16.20;;;;;;;;;;4130741;34;20584;-67
2021/05/11 03:46:01;;;;;;;22.05;15.00;;;;;;;;;;4131464;34;20107;-67
2021/05/11 03:48:27;;;;;;;25.23;15.68;;;;;;;;;;4141887;34;20095;-67
2021/05/11 03:50:53;;;;;;;25.12;16.00;;;;;;;;;;4137664;34;20224;-67
2021/05/11 03:53:19;;;;;;;25.05;16.20;;;;;;;;;;4150381;34;20098;-66
2021/05/11 03:55:47;;;;;;;27.87;14.80;;;;;;;;;;4137566;34;20138;-66
2021/05/11 03:58:14;;;;;;;27.13;16.30;;;;;;;;;;4150242;34;20123;-66
2021/05/11 04:00:40;;;;;;;31.30;16.20;;;;;;;;;;4150485;34;20091;-66
2021/05/11 04:03:06;;;;;;;23.70;15.45;;;;;;;;;;4150158;34;20118;-66
2021/05/11 04:05:33;;;;;;;30.33;16.12;;;;;;;;;;4150258;34;20131;-66
2021/05/11 04:08:00;;;;;;;28.38;13.95;;;;;;;;;;4150092;34;20122;-65
2021/05/11 04:18:08;;;;;;;55.90;15.68;;;;;;;;;;4139028;34;20127;-65
2021/05/11 04:20:33;;;;;;;36.70;14.90;;;;;;;;;;4137288;34;20122;-65
2021/05/11 04:22:59;;;;;;;43.25;15.73;;;;;;;;;;4137501;34;20114;-65
2021/05/11 04:25:25;;;;;;;27.98;13.57;;;;;;;;;;4136803;34;20096;-65
2021/05/11 04:27:51;;;;;;;23.15;13.20;;;;;;;;;;4149823;34;20171;-65
2021/05/11 04:30:19;;;;;;;27.52;14.73;;;;;;;;;;4150078;34;20158;-65
2021/05/11 04:32:45;;;;;;;28.02;12.98;;;;;;;;;;4149934;34;20524;-65
2021/05/11 04:35:12;;;;;;;23.58;14.23;;;;;;;;;;4149864;34;20131;-65
2021/05/11 04:37:37;;;;;;;23.75;13.65;;;;;;;;;;4137384;34;20123;-66
2021/05/11 04:40:04;;;;;;;26.85;12.73;;;;;;;;;;4149848;34;20547;-65
2021/05/11 04:42:30;;;;;;;18.87;13.93;;;;;;;;;;4149654;34;20534;-65
2021/05/11 04:44:59;;;;;;;20.58;14.00;;;;;;;;;;4149734;34;20310;-65
2021/05/11 04:48:07;;;;;;;31.30;13.35;;;;;;;;;;4137357;34;20103;-65
2021/05/11 04:50:15;;;;;;;20.98;14.20;;;;;;;;;;4137388;34;20119;-65
2021/05/11 04:52:42;;;;;;;21.92;13.13;;;;;;;;;;4149573;34;20449;-65
2021/05/11 04:55:09;;;;;;;21.90;13.43;;;;;;;;;;4149712;34;20569;-65
2021/05/11 04:57:35;;;;;;;23.35;14.13;;;;;;;;;;4125978;34;20526;-66
2021/05/11 05:00:03;;;;;;;27.00;13.65;;;;;;;;;;4148423;34;20133;-66
2021/05/11 05:02:30;;;;;;;21.98;13.50;;;;;;;;;;4147927;34;20126;-66
2021/05/11 05:04:56;;;;;;;28.58;14.75;;;;;;;;;;4149747;34;20112;-66
2021/05/11 05:07:22;;;;;;;20.65;12.60;;;;;;;;;;4149716;34;20232;-66
2021/05/11 05:09:48;;;;;;;23.83;12.18;;;;;;;;;;4136961;34;20141;-66
2021/05/11 05:12:13;;;;;;;25.27;13.00;;;;;;;;;;4149716;34;20524;-66
2021/05/11 05:14:39;;;;;;;19.83;13.45;;;;;;;;;;4149340;34;20120;-66
2021/05/11 05:17:05;;;;;;;25.02;14.85;;;;;;;;;;4149443;34;20220;-65
2021/05/11 05:19:31;;;;;;;18.33;11.93;;;;;;;;;;4149427;34;20123;-66
2021/05/11 05:21:57;;;;;;;19.08;10.38;;;;;;;;;;4136886;34;20276;-66
2021/05/11 05:24:32;;;;;;;16.17;11.93;;;;;;;;;;4136729;34;20206;-66
2021/05/11 05:27:03;;;;;;;18.57;11.00;;;;;;;;;;4149243;34;20223;-66
2021/05/11 05:29:29;;;;;;;19.73;12.82;;;;;;;;;;4149151;34;20445;-66
2021/05/11 05:31:56;;;;;;;27.75;12.85;;;;;;;;;;4149150;34;20115;-66
2021/05/11 05:34:22;;;;;;;15.10;11.73;;;;;;;;;;4149485;34;20150;-66
2021/05/11 05:36:48;;;;;;;24.73;11.93;;;;;;;;;;4137691;34;20215;-67
2021/05/11 05:39:14;;;;;;;19.08;12.20;;;;;;;;;;4151597;34;20103;-67
2021/05/11 05:41:39;;;;;;;18.15;10.93;;;;;;;;;;4151340;34;20118;-66
2021/05/11 05:44:06;;;;;;;21.17;10.98;;;;;;;;;;4151262;34;20544;-66
2021/05/11 05:46:32;;;;;;;17.67;11.88;;;;;;;;;;4149796;34;20543;-66
2021/05/11 05:48:58;;;;;;;14.60;10.80;;;;;;;;;;4151123;34;20218;-66
2021/05/11 05:51:24;;;;;;;16.42;11.68;;;;;;;;;;4151189;34;20138;-66
2021/05/11 05:53:50;;;;;;;18.17;11.52;;;;;;;;;;4151061;34;20116;-65
2021/05/11 05:56:18;;;;;;;16.15;10.05;;;;;;;;;;4151079;34;20528;-66
2021/05/11 05:58:44;;;;;;;17.50;11.30;;;;;;;;;;4127464;34;20600;-66
2021/05/11 06:01:10;;;;;;;23.40;12.15;;;;;;;;;;4138708;34;20138;-66
2021/05/11 06:06:09;;;;;;;23.12;11.60;;;;;;;;;;4139369;34;20127;-66
2021/05/11 06:08:37;;;;;;;17.40;12.10;;;;;;;;;;4150869;34;20155;-65
2021/05/11 06:13:38;;;;;;;17.33;11.20;;;;;;;;;;4150891;34;20107;-65
2021/05/11 06:18:49;;;;;;;15.07;10.15;;;;;;;;;;4151365;34;20530;-65
2021/05/11 06:21:15;;;;;;;21.08;9.98;;;;;;;;;;4151240;34;20118;-65
2021/05/11 06:23:41;;;;;;;17.08;10.77;;;;;;;;;;4150820;34;20106;-65
2021/05/11 06:26:09;;;;;;;15.82;11.15;;;;;;;;;;4138404;34;20510;-66
2021/05/11 06:28:38;;;;;;;28.02;11.05;;;;;;;;;;4150606;34;20108;-65
2021/05/11 06:31:04;;;;;;;19.30;11.50;;;;;;;;;;4151056;34;20223;-65
2021/05/11 06:33:30;;;;;;;21.30;11.35;;;;;;;;;;4150772;34;20142;-65
2021/05/11 06:35:56;;;;;;;18.30;10.95;;;;;;;;;;4150852;34;20132;-65
2021/05/11 06:38:22;;;;;;;17.85;10.55;;;;;;;;;;4151000;34;20194;-66
2021/05/11 06:40:48;;;;;;;16.58;11.50;;;;;;;;;;4138278;34;20138;-65
2021/05/11 06:43:21;;;;;;;17.73;10.68;;;;;;;;;;4150764;34;20111;-65
2021/05/11 06:48:27;;;;;;;18.95;11.02;;;;;;;;;;4150392;34;20198;-66
2021/05/11 06:53:41;;;;;;;15.45;10.07;;;;;;;;;;4150702;34;20206;-65
2021/05/11 06:56:11;;;;;;;17.12;10.52;;;;;;;;;;4150690;34;20123;-66
2021/05/11 06:58:37;;;;;;;13.98;8.48;;;;;;;;;;4138491;34;20190;-66
2021/05/11 07:01:03;;;;;;;18.10;10.07;;;;;;;;;;4150661;34;20508;-66
2021/05/11 07:03:29;;;;;;;19.02;10.27;;;;;;;;;;4150577;34;20508;-66
2021/05/11 07:05:56;;;;;;;25.02;10.13;;;;;;;;;;4150618;34;20146;-66
2021/05/11 07:08:37;;;;;;;9.93;5.95;;;;;;;;;;4138120;34;20551;-66
2021/05/11 07:11:26;;;;;;;16.98;10.02;;;;;;;;;;4150707;34;20715;-66
2021/05/11 07:13:52;;;;;;;14.95;8.38;;;;;;;;;;4140390;34;20186;-66
2021/05/11 07:16:18;;;;;;;16.90;8.48;;;;;;;;;;4137956;34;20115;-66
2021/05/11 07:18:44;;;;;;;13.52;8.27;;;;;;;;;;4150480;34;20271;-66
2021/05/11 07:21:10;;;;;;;15.10;11.10;;;;;;;;;;4150531;34;20119;-66
2021/05/11 07:23:36;;;;;;;14.38;10.18;;;;;;;;;;4137896;34;20199;-66
2021/05/11 07:26:10;;;;;;;14.25;9.20;;;;;;;;;;4150423;34;20139;-66
2021/05/11 07:31:06;;;;;;;3.17;2.65;;;;;;;;;;4150610;34;20123;-67
2021/05/11 07:33:36;;;;;;;13.48;7.00;;;;;;;;;;4150275;34;20617;-66
2021/05/11 07:36:03;;;;;;;14.65;9.75;;;;;;;;;;4150425;34;20100;-66
2021/05/11 07:38:29;;;;;;;15.80;11.48;;;;;;;;;;4150282;34;20084;-66
2021/05/11 07:40:55;;;;;;;19.52;10.60;;;;;;;;;;4137870;34;20106;-66
2021/05/11 07:43:23;;;;;;;15.80;11.27;;;;;;;;;;4137740;34;20095;-66
2021/05/11 07:56:42;;;;;;;16.12;9.93;;;;;;;;;;4150231;34;20118;-66
2021/05/11 08:15:31;;;;;;;19.87;11.10;;;;;;;;;;4150138;34;20578;-67
2021/05/11 08:18:07;;;;;;;12.52;8.23;;;;;;;;;;4149816;34;20475;-67
2021/05/11 08:28:51;;;;;;;15.32;9.05;;;;;;;;;;4149915;34;20135;-66
2021/05/11 08:31:17;;;;;;;18.90;12.48;;;;;;;;;;4149882;34;20686;-66
2021/05/11 08:33:43;;;;;;;20.52;12.43;;;;;;;;;;4149872;34;20130;-66
2021/05/11 08:36:09;;;;;;;15.13;10.80;;;;;;;;;;4149951;34;20118;-66
2021/05/11 08:38:35;;;;;;;17.35;10.65;;;;;;;;;;4149717;34;20107;-67
2021/05/11 08:41:02;;;;;;;21.10;12.55;;;;;;;;;;4137154;34;20219;-67
2021/05/11 08:43:31;;;;;;;19.55;11.90;;;;;;;;;;4149651;34;20223;-66
2021/05/11 08:46:00;;;;;;;18.73;8.85;;;;;;;;;;4149640;34;20091;-70
2021/05/11 08:48:26;;;;;;;16.85;10.68;;;;;;;;;;4136897;34;20528;-67
2021/05/11 08:50:59;;;;;;;17.27;10.65;;;;;;;;;;4149348;34;20146;-67
2021/05/11 09:04:40;;;;;;;17.92;11.60;;;;;;;;;;4149781;34;20218;-67
2021/05/11 09:25:51;;;;;;;17.52;11.93;;;;;;;;;;4162958;34;20103;-67
2021/05/11 09:28:25;;;;;;;18.37;12.48;;;;;;;;;;4148414;34;20130;-66
2021/05/11 09:31:47;;;;;;;22.42;14.02;;;;;;;;;;4151545;34;20290;-66
2021/05/11 09:33:56;;;;;;;20.62;12.43;;;;;;;;;;4134845;34;20108;-67
2021/05/11 09:56:18;;;;;;;19.90;11.68;;;;;;;;;;4140565;34;20122;-66
2021/05/11 10:40:53;;;;;;;17.80;11.25;;;;;;;;;;4138780;34;20122;-66
2021/05/11 10:48:28;;;;;;;19.67;12.00;;;;;;;;;;4135559;34;20524;-76
2021/05/11 10:50:54;;;;;;;13.73;10.80;;;;;;;;;;4137426;34;20221;-67
2021/05/11 10:53:38;;;;;;;17.02;10.95;;;;;;;;;;4137009;34;20207;-67
2021/05/11 10:56:25;;;;;;;16.62;11.25;;;;;;;;;;4124912;34;20123;-67
2021/05/11 10:59:36;;;;;;;18.27;10.43;;;;;;;;;;4137232;34;20100;-67
2021/05/11 11:02:37;;;;;;;21.45;12.10;;;;;;;;;;4135923;34;20118;-75
2021/05/11 11:05:03;;;;;;;16.40;11.30;;;;;;;;;;4137289;34;20127;-68
2021/05/11 11:07:37;;;;;;;22.65;11.73;;;;;;;;;;4137079;34;20112;-68
2021/05/11 11:10:06;;;;;;;20.70;11.75;;;;;;;;;;4137389;34;20128;-67
2021/05/11 11:12:40;;;;;;;12.43;5.87;;;;;;;;;;4137186;34;20100;-68
2021/05/11 11:15:17;;;;;;;18.83;11.57;;;;;;;;;;4137413;34;20103;-66
2021/05/11 11:17:45;;;;;;;20.88;12.15;;;;;;;;;;4137034;34;20123;-67
2021/05/11 11:20:13;;;;;;;18.27;11.38;;;;;;;;;;4137057;34;20189;-67
2021/05/11 11:25:27;;;;;;;22.73;11.30;;;;;;;;;;4137245;34;20118;-68
2021/05/11 11:27:53;;;;;;;17.02;11.32;;;;;;;;;;4136802;34;20104;-66
2021/05/11 11:30:20;;;;;;;20.35;12.18;;;;;;;;;;4147938;34;20600;-68
2021/05/11 11:32:47;;;;;;;16.98;12.00;;;;;;;;;;4150309;34;20134;-67
2021/05/11 11:35:13;;;;;;;11.55;8.70;;;;;;;;;;4150681;34;20138;-65
2021/05/11 11:37:40;;;;;;;23.60;13.18;;;;;;;;;;4150603;34;20108;-67
2021/05/11 11:40:08;;;;;;;17.48;8.20;;;;;;;;;;4137935;34;20134;-68
2021/05/11 11:42:41;;;;;;;13.20;7.78;;;;;;;;;;4150340;34;20114;-68
2021/05/11 11:45:21;;;;;;;17.17;11.32;;;;;;;;;;4150681;34;20481;-66
2021/05/11 11:47:59;;;;;;;13.65;9.02;;;;;;;;;;4150400;34;20120;-68
2021/05/11 11:50:26;;;;;;;14.52;10.60;;;;;;;;;;4150290;34;20126;-68
2021/05/11 11:55:51;;;;;;;22.23;12.13;;;;;;;;;;4150300;34;20541;-69
2021/05/11 11:58:23;;;;;;;20.23;10.38;;;;;;;;;;4139900;34;20531;-70
2021/05/11 12:00:49;;;;;;;4.25;3.40;;;;;;;;;;4150076;34;20095;-69
2021/05/11 12:03:17;;;;;;;17.50;11.27;;;;;;;;;;4150136;34;20103;-69
2021/05/11 12:05:47;;;;;;;17.52;12.40;;;;;;;;;;4137786;34;20178;-69
2021/05/11 12:08:21;;;;;;;13.25;9.85;;;;;;;;;;4150204;34;20115;-69
2021/05/11 12:10:51;;;;;;;13.70;8.23;;;;;;;;;;4137440;34;20535;-69
2021/05/11 12:13:30;;;;;;;8.38;5.53;;;;;;;;;;4150012;34;20115;-69
2021/05/11 12:16:15;;;;;;;20.67;12.43;;;;;;;;;;4127386;34;20113;-69
2021/05/11 12:19:08;;;;;;;;;;;;;;;;;;4150372;34;20103;-69
2021/05/11 12:21:50;;;;;;;20.73;12.93;;;;;;;;;;4150001;34;20607;-69
2021/05/11 12:24:16;;;;;;;18.00;12.63;;;;;;;;;;4148708;34;20123;-70
2021/05/11 12:26:43;;;;;;;3.25;2.95;;;;;;;;;;4137283;34;20129;-70
2021/05/11 12:29:10;;;;;;;15.32;7.70;;;;;;;;;;4149625;34;20100;-70
2021/05/11 12:31:38;;;;;;;4.82;4.22;;;;;;;;;;4150043;34;20131;-70
2021/05/11 12:34:05;;;;;;;9.80;7.32;;;;;;;;;;4149724;34;20119;-70
2021/05/11 12:36:31;;;;;;;20.62;11.93;;;;;;;;;;4149754;34;20115;-70
2021/05/11 12:39:32;;;;;;;15.95;11.77;;;;;;;;;;4137575;34;20104;-70
2021/05/11 12:42:18;;;;;;;18.55;9.80;;;;;;;;;;4157061;34;20141;-69
2021/05/11 12:44:44;;;;;;;;;;;;;;;;;;4158721;34;20220;-70
2021/05/11 12:47:10;;;;;;;14.55;10.02;;;;;;;;;;4138186;34;20006;-70
2021/05/11 12:49:36;;;;;;;22.15;11.32;;;;;;;;;;4138196;34;20612;-70
2021/05/11 12:52:05;;;;;;;15.32;11.60;;;;;;;;;;4138257;34;20220;-69
2021/05/11 12:54:45;;;;;;;16.45;12.13;;;;;;;;;;4138375;34;20186;-69
2021/05/11 13:25:59;;;;;;;16.05;8.68;;;;;;;;;;4137940;34;20111;-69
2021/05/11 13:33:01;;;;;;;13.15;9.75;;;;;;;;;;4151349;34;20536;-69
2021/05/11 13:35:13;;;;;;;21.45;11.23;;;;;;;;;;4146890;34;20158;-69
2021/05/11 13:37:54;;;;;;;16.58;11.02;;;;;;;;;;4151728;34;20145;-69
2021/05/11 13:41:07;;;;;;;22.77;12.70;;;;;;;;;;4135900;34;20107;-69
2021/05/11 13:43:42;;;;;;;18.65;12.60;;;;;;;;;;4155068;34;20112;-70
2021/05/11 13:46:08;;;;;;;18.35;12.43;;;;;;;;;;4141245;34;20103;-68
2021/05/11 13:48:37;;;;;;;15.45;11.48;;;;;;;;;;4124705;34;20126;-70
2021/05/11 13:53:37;;;;;;;20.52;12.25;;;;;;;;;;4137814;34;20134;-68
2021/05/11 13:56:19;;;;;;;18.83;13.02;;;;;;;;;;4137322;34;20457;-68
2021/05/11 14:03:59;;;;;;;25.23;12.02;;;;;;;;;;4149966;34;20553;-72
2021/05/11 14:06:25;;;;;;;16.55;11.35;;;;;;;;;;4149958;34;20127;-73
2021/05/11 14:08:51;;;;;;;19.92;14.13;;;;;;;;;;4149502;34;20138;-72
2021/05/11 14:11:20;;;;;;;22.20;14.18;;;;;;;;;;4151258;34;20099;-73
2021/05/11 14:14:01;;;;;;;24.35;12.73;;;;;;;;;;4149844;34;20526;-72
2021/05/11 14:16:27;;;;;;;19.73;13.45;;;;;;;;;;4151363;34;20115;-72
2021/05/11 14:18:54;;;;;;;20.00;12.30;;;;;;;;;;4151583;34;20115;-74
2021/05/11 14:21:35;;;;;;;18.12;11.52;;;;;;;;;;4144610;34;20118;-71
2021/05/11 14:24:15;;;;;;;21.20;13.57;;;;;;;;;;4147948;34;20550;-72
2021/05/11 14:26:51;;;;;;;21.05;13.90;;;;;;;;;;4139852;34;20106;-72
2021/05/11 14:29:17;;;;;;;17.70;12.95;;;;;;;;;;4131713;34;20108;-72
2021/05/11 14:31:43;;;;;;;18.30;13.25;;;;;;;;;;4134411;34;20141;-72
2021/05/11 14:34:09;;;;;;;40.92;15.77;;;;;;;;;;4125059;34;20116;-71
2021/05/11 14:36:36;;;;;;;21.17;14.82;;;;;;;;;;4141234;34;20203;-71
2021/05/11 14:39:04;;;;;;;24.75;15.00;;;;;;;;;;4125022;34;20125;-71
2021/05/11 14:41:29;;;;;;;24.33;13.35;;;;;;;;;;4137156;34;20113;-71
2021/05/11 14:43:55;;;;;;;25.37;14.55;;;;;;;;;;4137194;34;20182;-70
2021/05/11 14:46:21;;;;;;;24.35;15.15;;;;;;;;;;4137513;34;20112;-71
2021/05/11 14:48:47;;;;;;;25.85;14.30;;;;;;;;;;4124800;34;20555;-71
2021/05/11 14:51:13;;;;;;;24.35;14.02;;;;;;;;;;4137475;34;20114;-71
2021/05/11 14:53:41;;;;;;;26.30;13.45;;;;;;;;;;4136783;34;20110;-70
2021/05/11 14:56:08;;;;;;;19.90;14.07;;;;;;;;;;4125203;34;20135;-69
2021/05/11 14:58:35;;;;;;;20.50;14.00;;;;;;;;;;4122984;34;20118;-71
2021/05/11 15:01:01;;;;;;;27.42;13.38;;;;;;;;;;4136202;34;20101;-69
2021/05/11 15:03:27;;;;;;;18.85;12.37;;;;;;;;;;4125339;34;20140;-71
2021/05/11 15:05:53;;;;;;;23.35;12.60;;;;;;;;;;4137278;34;20550;-69
2021/05/11 15:08:19;;;;;;;18.35;12.77;;;;;;;;;;4124486;34;20408;-68
2021/05/11 15:10:46;;;;;;;20.17;13.18;;;;;;;;;;4136232;34;20542;-71
2021/05/11 15:13:12;;;;;;;18.73;10.82;;;;;;;;;;4124771;34;20098;-70
2021/05/11 15:15:41;;;;;;;21.50;12.85;;;;;;;;;;4137142;34;20104;-71
2021/05/11 15:18:08;;;;;;;20.23;13.32;;;;;;;;;;4124802;34;20121;-70
2021/05/11 15:20:34;;;;;;;22.58;13.88;;;;;;;;;;4137643;34;20499;-70
2021/05/11 15:23:01;;;;;;;26.40;14.80;;;;;;;;;;4137315;34;20454;-70
2021/05/11 15:25:28;;;;;;;20.12;13.80;;;;;;;;;;4124654;34;20118;-68
2021/05/11 15:27:54;;;;;;;24.48;16.73;;;;;;;;;;4142608;34;20127;-67
2021/05/11 15:30:24;;;;;;;22.10;15.65;;;;;;;;;;4150393;34;20129;-69
2021/05/11 15:32:58;;;;;;;28.55;16.10;;;;;;;;;;4150713;34;20190;-71
2021/05/11 15:35:31;;;;;;;30.37;15.73;;;;;;;;;;4150760;34;20612;-69
2021/05/11 15:37:59;;;;;;;31.83;16.40;;;;;;;;;;4137075;34;20126;-70
2021/05/11 15:40:34;;;;;;;40.00;19.08;;;;;;;;;;4150659;34;20110;-69
2021/05/11 15:43:00;;;;;;;;;;;;;;;;;;4150866;34;20409;-71
2021/05/11 15:45:27;;;;;;;32.25;16.42;;;;;;;;;;4150395;34;20407;-71
2021/05/11 15:47:53;;;;;;;25.58;16.30;;;;;;;;;;4137651;34;20134;-69
2021/05/11 15:50:27;;;;;;;28.52;16.05;;;;;;;;;;4150212;34;20219;-70
2021/05/11 15:52:56;;;;;;;26.05;14.63;;;;;;;;;;4150366;34;20118;-75
2021/05/11 15:55:23;;;;;;;18.95;11.80;;;;;;;;;;4138138;34;20443;-71
2021/05/11 15:57:51;;;;;;;19.73;12.43;;;;;;;;;;4150235;34;20110;-73
2021/05/11 16:00:17;;;;;;;18.73;13.43;;;;;;;;;;4137514;34;20109;-71
2021/05/11 16:02:43;;;;;;;16.23;11.73;;;;;;;;;;4150208;34;20107;-71
2021/05/11 16:05:10;;;;;;;28.33;13.57;;;;;;;;;;4137621;34;20114;-72
2021/05/11 16:07:36;;;;;;;19.98;11.68;;;;;;;;;;4149511;34;20595;-72
2021/05/11 16:10:11;;;;;;;20.00;12.98;;;;;;;;;;4149880;34;20178;-71
2021/05/11 16:12:37;;;;;;;19.98;11.70;;;;;;;;;;4149960;34;20163;-70
2021/05/11 16:15:08;;;;;;;17.95;11.32;;;;;;;;;;4150321;34;20111;-70
2021/05/11 16:17:34;;;;;;;15.75;11.20;;;;;;;;;;4137681;34;20095;-70
2021/05/11 16:20:01;;;;;;;18.23;11.93;;;;;;;;;;4136891;34;20110;-70
2021/05/11 16:22:27;;;;;;;17.50;11.60;;;;;;;;;;4148828;34;20126;-70
2021/05/11 16:24:53;;;;;;;16.10;11.50;;;;;;;;;;4137437;34;20095;-69
2021/05/11 16:27:19;;;;;;;14.95;11.48;;;;;;;;;;4150146;34;20111;-70
2021/05/11 16:29:45;;;;;;;19.48;11.40;;;;;;;;;;4149957;34;20557;-71
2021/05/11 16:32:38;;;;;;;18.60;11.38;;;;;;;;;;4150083;34;20100;-71
2021/05/11 16:35:38;;;;;;;16.70;11.73;;;;;;;;;;4129895;34;20603;-71
2021/05/11 16:38:54;;;;;;;17.62;11.20;;;;;;;;;;4137732;34;20096;-71
2021/05/11 16:41:40;;;;;;;17.65;11.75;;;;;;;;;;4149714;34;20138;-70
2021/05/11 16:44:06;;;;;;;21.08;11.73;;;;;;;;;;4137226;34;20127;-71
2021/05/11 16:46:34;;;;;;;25.45;12.25;;;;;;;;;;4137560;34;20134;-71
2021/05/11 16:49:01;;;;;;;21.73;12.30;;;;;;;;;;4149911;34;20118;-71
2021/05/11 16:51:29;;;;;;;28.83;15.52;;;;;;;;;;4149739;34;20115;-71
2021/05/11 16:53:55;;;;;;;23.38;13.20;;;;;;;;;;4149911;34;20130;-71
2021/05/11 16:56:28;;;;;;;25.02;11.68;;;;;;;;;;4137584;34;20098;-70
2021/05/11 16:58:57;;;;;;;18.20;11.65;;;;;;;;;;4137548;34;20581;-72
2021/05/11 17:01:26;;;;;;;23.17;13.00;;;;;;;;;;4137230;34;20218;-72
2021/05/11 17:03:56;;;;;;;23.92;12.77;;;;;;;;;;4149626;34;20219;-71
2021/05/11 17:06:49;;;;;;;17.35;10.82;;;;;;;;;;4150182;34;20115;-73
2021/05/11 17:09:15;;;;;;;19.20;11.48;;;;;;;;;;4139328;34;20129;-69
2021/05/11 17:11:41;;;;;;;22.62;11.90;;;;;;;;;;4137138;34;20626;-68
2021/05/11 17:14:11;;;;;;;29.60;13.10;;;;;;;;;;4123680;34;20111;-76
2021/05/11 17:16:49;;;;;;;16.95;11.95;;;;;;;;;;4136416;34;20104;-69
2021/05/11 17:19:18;;;;;;;21.58;12.98;;;;;;;;;;4125701;34;20189;-69
2021/05/11 17:21:47;;;;;;;19.08;12.65;;;;;;;;;;4136481;34;20115;-69
2021/05/11 17:24:16;;;;;;;23.27;13.25;;;;;;;;;;4124027;34;20127;-71
2021/05/11 17:26:44;;;;;;;28.67;12.88;;;;;;;;;;4136669;34;20208;-70
2021/05/11 17:29:18;;;;;;;26.42;12.40;;;;;;;;;;4136079;34;20139;-70
2021/05/11 17:31:55;;;;;;;21.15;12.75;;;;;;;;;;4136967;34;20110;-70
2021/05/11 17:34:21;;;;;;;28.77;13.35;;;;;;;;;;4136894;34;20110;-70
2021/05/11 17:36:47;;;;;;;20.92;13.10;;;;;;;;;;4137103;34;20096;-74
2021/05/11 17:39:13;;;;;;;32.55;13.48;;;;;;;;;;4138816;34;20099;-73
2021/05/11 17:42:08;;;;;;;38.67;13.65;;;;;;;;;;4152253;34;20095;-70
2021/05/11 17:44:54;;;;;;;20.80;12.82;;;;;;;;;;4151757;34;20111;-69
2021/05/11 17:47:27;;;;;;;31.52;12.85;;;;;;;;;;4139636;34;20224;-69
2021/05/11 17:50:14;;;;;;;21.48;13.35;;;;;;;;;;4141391;34;20204;-68
2021/05/11 17:52:45;;;;;;;21.35;14.00;;;;;;;;;;4152024;34;20122;-69
2021/05/11 17:55:16;;;;;;;24.85;11.80;;;;;;;;;;4151659;34;20102;-70
2021/05/11 17:57:59;;;;;;;24.27;11.45;;;;;;;;;;4151573;34;20154;-71
2021/05/11 18:00:28;;;;;;;21.52;12.60;;;;;;;;;;4150394;34;20134;-69
2021/05/11 18:02:54;;;;;;;21.83;12.65;;;;;;;;;;4138732;34;20215;-66
2021/05/11 18:05:21;;;;;;;21.92;13.15;;;;;;;;;;4151419;34;20448;-67
2021/05/11 18:07:47;;;;;;;20.55;12.35;;;;;;;;;;4138893;34;20099;-70
2021/05/11 18:10:25;;;;;;;23.90;13.27;;;;;;;;;;4149941;34;20095;-70
2021/05/11 18:13:17;;;;;;;17.35;13.38;;;;;;;;;;4151530;34;20556;-68
2021/05/11 18:15:44;;;;;;;22.27;12.82;;;;;;;;;;4151635;34;20103;-66
2021/05/11 18:18:13;;;;;;;16.90;11.63;;;;;;;;;;4138822;34;20102;-71
2021/05/11 18:20:51;;;;;;;21.20;11.70;;;;;;;;;;4151472;34;20158;-69
2021/05/11 18:24:08;;;;;;;22.70;11.35;;;;;;;;;;4151271;34;20099;-69
2021/05/11 18:27:03;;;;;;;19.10;11.98;;;;;;;;;;4151329;34;20115;-70
2021/05/11 18:29:34;;;;;;;16.77;10.80;;;;;;;;;;4137808;34;20112;-70
2021/05/11 18:32:04;;;;;;;20.17;11.68;;;;;;;;;;4136416;34;20441;-71
2021/05/11 18:34:33;;;;;;;19.12;11.88;;;;;;;;;;4137701;34;20118;-70
2021/05/11 18:39:25;;;;;;;26.98;13.68;;;;;;;;;;4136358;34;20118;-69
2021/05/11 18:41:55;;;;;;;22.52;12.95;;;;;;;;;;4137675;34;20549;-70
2021/05/11 18:44:22;;;;;;;23.52;13.38;;;;;;;;;;4135928;34;20099;-70
2021/05/11 18:46:55;;;;;;;22.67;13.60;;;;;;;;;;4137437;34;20195;-70
2021/05/11 18:49:22;;;;;;;17.90;12.00;;;;;;;;;;4137333;34;20135;-70
2021/05/11 18:51:51;;;;;;;20.05;13.82;;;;;;;;;;4136265;34;20469;-70
2021/05/11 18:54:18;;;;;;;27.02;12.73;;;;;;;;;;4137755;34;20123;-71
2021/05/11 18:56:55;;;;;;;27.05;13.00;;;;;;;;;;4136337;34;20103;-70
2021/05/11 18:59:23;;;;;;;28.75;14.70;;;;;;;;;;4137550;34;20104;-70
2021/05/11 19:01:57;;;;;;;21.45;11.70;;;;;;;;;;4136275;34;20115;-69
2021/05/11 19:04:31;;;;;;;19.37;11.45;;;;;;;;;;4125256;34;20548;-69
2021/05/11 19:06:57;;;;;;;25.42;12.70;;;;;;;;;;4136048;34;20535;-70
2021/05/11 19:09:23;;;;;;;16.65;11.55;;;;;;;;;;4135820;34;20491;-70
2021/05/11 19:11:49;;;;;;;23.15;11.38;;;;;;;;;;4137291;34;20122;-70
2021/05/11 19:14:16;;;;;;;20.02;11.95;;;;;;;;;;4135807;34;20114;-70
2021/05/11 19:16:43;;;;;;;24.45;12.85;;;;;;;;;;4135796;34;20511;-70
2021/05/11 19:19:09;;;;;;;26.98;12.25;;;;;;;;;;4135785;34;20102;-70
2021/05/11 19:21:36;;;;;;;19.75;11.82;;;;;;;;;;4135714;34;20103;-70